Time,TemperatureF,DewpointF,PressureIn,WindDirection,WindDirectionDegrees,WindSpeedMPH,WindSpeedGustMPH,Humidity,HourlyPrecipIn,Conditions,Clouds,dailyrainin,SoftwareType,DateUTC
2013-09-16 02:22:00,45.0,43.0,30.33,North,0,0.0,-999.0,93,-99.99,,,-99.99,,2013-09-16 07:22:00,
2013-09-16 02:43:00,43.0,43.0,30.33,North,0,0.0,-999.0,100,-99.99,,,-99.99,,2013-09-16 07:43:00,
2013-09-16 03:22:00,43.0,41.0,30.34,North,0,0.0,-999.0,93,-99.99,,,-99.99,,2013-09-16 08:22:00,
2013-09-16 03:42:00,43.0,41.0,30.34,North,0,0.0,-999.0,93,-99.99,,,-99.99,,2013-09-16 08:42:00,
2013-09-16 04:22:00,41.0,39.0,30.34,North,0,0.0,-999.0,93,-99.99,,,-99.99,,2013-09-16 09:22:00,
2013-09-16 04:43:00,41.0,39.0,30.34,North,0,0.0,-999.0,93,-99.99,,,-99.99,,2013-09-16 09:43:00,
2013-09-16 04:53:00,41.0,39.0,30.34,North,0,0.0,-999.0,93,-99.99,,,-99.99,,2013-09-16 09:53:00,
2013-09-16 05:03:00,41.0,39.0,30.34,North,0,0.0,-999.0,93,-99.99,,,-99.99,,2013-09-16 10:03:00,
2013-09-16 05:23:00,43.0,43.0,30.34,North,0,0.0,-999.0,100,-99.99,,,-99.99,,2013-09-16 10:23:00,
2013-09-16 05:42:00,45.0,45.0,30.34,North,0,0.0,-999.0,100,-99.99,,,-99.99,,2013-09-16 10:42:00,
2013-09-16 06:22:00,48.0,46.0,30.35,North,0,0.0,-999.0,93,-99.99,,,-99.99,,2013-09-16 11:22:00,
2013-09-16 06:42:00,46.0,45.0,30.35,North,0,0.0,-999.0,93,-99.99,,,-99.99,,2013-09-16 11:42:00,
2013-09-16 07:22:00,45.0,45.0,30.36,North,0,0.0,-999.0,100,-99.99,,,-99.99,,2013-09-16 12:22:00,
2013-09-16 07:42:00,46.0,45.0,30.37,North,0,0.0,-999.0,93,-99.99,,,-99.99,,2013-09-16 12:42:00,
2013-09-16 08:22:00,48.0,46.0,30.37,North,0,0.0,-999.0,93,-99.99,,,-99.99,,2013-09-16 13:22:00,
2013-09-16 08:42:00,48.0,48.0,30.37,East,80,5.0,-999.0,100,-99.99,,,-99.99,,2013-09-16 13:42:00,
2013-09-16 09:22:00,50.0,48.0,30.37,ESE,110,5.0,-999.0,93,-99.99,,,-99.99,,2013-09-16 14:22:00,
2013-09-16 09:42:00,52.0,52.0,30.37,North,0,0.0,-999.0,100,-99.99,,,-99.99,,2013-09-16 14:42:00,
2013-09-16 10:22:00,55.0,52.0,30.38,North,-99,5.0,-999.0,87,-99.99,,,-99.99,,2013-09-16 15:22:00,
2013-09-16 10:43:00,57.0,52.0,30.38,ESE,120,5.0,-999.0,82,-99.99,,,-99.99,,2013-09-16 15:43:00,
2013-09-16 11:23:00,61.0,54.0,30.37,ESE,120,5.0,-999.0,77,-99.99,,,-99.99,,2013-09-16 16:23:00,
2013-09-16 11:43:00,61.0,52.0,30.37,North,0,0.0,-999.0,72,-99.99,,,-99.99,,2013-09-16 16:43:00,
2013-09-16 12:23:00,63.0,54.0,30.37,ESE,120,5.0,-999.0,72,-99.99,,,-99.99,,2013-09-16 17:23:00,
2013-09-16 12:42:00,63.0,54.0,30.36,SE,130,5.0,-999.0,72,-99.99,,,-99.99,,2013-09-16 17:42:00,
2013-09-16 12:53:00,64.0,52.0,30.35,SE,140,6.0,-999.0,63,-99.99,,,-99.99,,2013-09-16 17:53:00,
2013-09-16 13:02:00,64.0,52.0,30.35,SE,140,6.0,-999.0,63,-99.99,,,-99.99,,2013-09-16 18:02:00,
2013-09-16 13:12:00,64.0,52.0,30.35,SE,140,6.0,-999.0,63,-99.99,,,-99.99,,2013-09-16 18:12:00,
2013-09-16 13:22:00,64.0,52.0,30.35,SE,140,6.0,-999.0,63,-99.99,,,-99.99,,2013-09-16 18:22:00,
2013-09-16 13:42:00,64.0,54.0,30.34,North,0,0.0,-999.0,67,-99.99,,,-99.99,,2013-09-16 18:42:00,
2013-09-16 14:22:00,64.0,52.0,30.33,SE,130,7.0,-999.0,63,-99.99,,,-99.99,,2013-09-16 19:22:00,
2013-09-16 14:42:00,66.0,52.0,30.32,ESE,120,7.0,-999.0,59,-99.99,,,-99.99,,2013-09-16 19:42:00,
2013-09-16 15:22:00,66.0,50.0,30.30,SE,130,6.0,-999.0,55,-99.99,,,-99.99,,2013-09-16 20:22:00,
2013-09-16 15:43:00,68.0,52.0,30.29,SE,130,7.0,-999.0,56,-99.99,,,-99.99,,2013-09-16 20:43:00,
2013-09-16 16:22:00,70.0,52.0,30.27,ESE,120,7.0,-999.0,52,-99.99,,,-99.99,,2013-09-16 21:22:00,
2013-09-16 16:44:00,70.0,50.0,30.26,SSE,160,10.0,16.0,49,-99.99,,,-99.99,,2013-09-16 21:44:00,
2013-09-16 17:24:00,70.0,50.0,30.25,ESE,120,6.0,-999.0,49,-99.99,,,-99.99,,2013-09-16 22:24:00,
2013-09-16 17:43:00,70.0,52.0,30.24,ESE,110,8.0,-999.0,52,-99.99,,,-99.99,,2013-09-16 22:43:00,
2013-09-16 18:22:00,70.0,52.0,30.24,ESE,110,9.0,-999.0,52,-99.99,,,-99.99,,2013-09-16 23:22:00,
2013-09-16 18:43:00,68.0,50.0,30.23,SSE,150,6.0,-999.0,52,-99.99,,,-99.99,,2013-09-16 23:43:00,
2013-09-16 19:22:00,66.0,52.0,30.23,ESE,120,5.0,-999.0,59,-99.99,,,-99.99,,2013-09-17 00:22:00,
2013-09-16 19:42:00,64.0,52.0,30.22,North,0,0.0,-999.0,63,-99.99,,,-99.99,,2013-09-17 00:42:00,
2013-09-16 22:23:00,57.0,50.0,30.21,North,0,0.0,-999.0,76,-99.99,,,-99.99,,2013-09-17 03:23:00,
2013-09-16 22:45:00,57.0,50.0,30.21,North,0,0.0,-999.0,76,-99.99,,,-99.99,,2013-09-17 03:45:00,
2013-09-16 23:24:00,57.0,48.0,30.21,SE,130,6.0,-999.0,71,-99.99,,,-99.99,,2013-09-17 04:24:00,
2013-09-16 23:44:00,57.0,52.0,30.22,SE,140,10.0,17.0,82,-99.99,,,-99.99,,2013-09-17 04:44:00,